sensor_id;sensor_type;location;lat;lon;timestamp;temperature;humidity
9915;DHT22;4996;48.746;9.174;2023-09-19T00:02:01;17.90;99.90
9915;DHT22;4996;48.746;9.174;2023-09-19T00:04:31;17.90;99.90
9915;DHT22;4996;48.746;9.174;2023-09-19T00:06:58;18.00;99.90
9915;DHT22;4996;48.746;9.174;2023-09-19T00:09:23;18.00;99.90
9915;DHT22;4996;48.746;9.174;2023-09-19T00:11:52;17.90;99.90
9915;DHT22;4996;48.746;9.174;2023-09-19T00:14:18;17.90;99.90
9915;DHT22;4996;48.746;9.174;2023-09-19T00:16:44;17.80;99.90
9915;DHT22;4996;48.746;9.174;2023-09-19T00:19:11;17.80;99.90
9915;DHT22;4996;48.746;9.174;2023-09-19T00:21:37;17.70;99.90
9915;DHT22;4996;48.746;9.174;2023-09-19T00:24:04;17.70;99.90
9915;DHT22;4996;48.746;9.174;2023-09-19T00:26:32;17.80;99.90
9915;DHT22;4996;48.746;9.174;2023-09-19T00:28:57;17.80;99.90
9915;DHT22;4996;48.746;9.174;2023-09-19T00:31:25;17.80;99.90
9915;DHT22;4996;48.746;9.174;2023-09-19T00:33:50;17.70;99.90
9915;DHT22;4996;48.746;9.174;2023-09-19T00:36:16;17.60;99.90
9915;DHT22;4996;48.746;9.174;2023-09-19T00:38:43;17.70;99.90
9915;DHT22;4996;48.746;9.174;2023-09-19T00:41:11;17.50;99.90
9915;DHT22;4996;48.746;9.174;2023-09-19T00:43:38;17.60;99.90
9915;DHT22;4996;48.746;9.174;2023-09-19T00:46:05;17.60;99.90
9915;DHT22;4996;48.746;9.174;2023-09-19T00:48:31;17.60;99.90
9915;DHT22;4996;48.746;9.174;2023-09-19T00:51:04;17.60;99.90
9915;DHT22;4996;48.746;9.174;2023-09-19T00:53:31;17.60;99.90
9915;DHT22;4996;48.746;9.174;2023-09-19T00:55:56;17.50;99.90
9915;DHT22;4996;48.746;9.174;2023-09-19T00:58:22;17.50;99.90
9915;DHT22;4996;48.746;9.174;2023-09-19T01:00:48;17.60;99.90
9915;DHT22;4996;48.746;9.174;2023-09-19T01:03:14;17.60;99.90
9915;DHT22;4996;48.746;9.174;2023-09-19T01:05:39;17.60;99.90
9915;DHT22;4996;48.746;9.174;2023-09-19T01:08:05;17.60;99.90
9915;DHT22;4996;48.746;9.174;2023-09-19T01:10:33;17.60;99.90
9915;DHT22;4996;48.746;9.174;2023-09-19T01:13:13;17.70;99.90
9915;DHT22;4996;48.746;9.174;2023-09-19T01:21:15;17.80;99.90
9915;DHT22;4996;48.746;9.174;2023-09-19T01:29:33;17.80;99.90
9915;DHT22;4996;48.746;9.174;2023-09-19T01:32:03;17.80;99.90
9915;DHT22;4996;48.746;9.174;2023-09-19T01:37:16;17.90;99.90
9915;DHT22;4996;48.746;9.174;2023-09-19T01:39:55;17.90;99.90
9915;DHT22;4996;48.746;9.174;2023-09-19T01:42:41;17.90;99.90
9915;DHT22;4996;48.746;9.174;2023-09-19T01:45:12;17.90;99.90
9915;DHT22;4996;48.746;9.174;2023-09-19T01:47:48;17.90;99.90
9915;DHT22;4996;48.746;9.174;2023-09-19T01:50:52;17.90;99.90
9915;DHT22;4996;48.746;9.174;2023-09-19T01:53:30;18.00;99.90
9915;DHT22;4996;48.746;9.174;2023-09-19T01:55:58;18.00;99.90
9915;DHT22;4996;48.746;9.174;2023-09-19T01:58:39;17.90;99.90
9915;DHT22;4996;48.746;9.174;2023-09-19T02:01:11;18.00;99.90
9915;DHT22;4996;48.746;9.174;2023-09-19T02:03:39;18.10;99.90
9915;DHT22;4996;48.746;9.174;2023-09-19T02:06:05;18.10;99.90
9915;DHT22;4996;48.746;9.174;2023-09-19T02:08:30;18.10;99.90
9915;DHT22;4996;48.746;9.174;2023-09-19T02:10:59;18.20;99.90
9915;DHT22;4996;48.746;9.174;2023-09-19T02:13:25;18.10;99.90
9915;DHT22;4996;48.746;9.174;2023-09-19T02:15:53;18.10;99.90
9915;DHT22;4996;48.746;9.174;2023-09-19T02:18:19;18.10;99.90
9915;DHT22;4996;48.746;9.174;2023-09-19T02:20:44;18.20;99.90
9915;DHT22;4996;48.746;9.174;2023-09-19T02:23:12;18.00;99.90
9915;DHT22;4996;48.746;9.174;2023-09-19T02:25:38;18.10;99.90
9915;DHT22;4996;48.746;9.174;2023-09-19T02:28:04;18.00;99.90
9915;DHT22;4996;48.746;9.174;2023-09-19T02:30:31;17.80;99.90
9915;DHT22;4996;48.746;9.174;2023-09-19T02:32:56;17.80;99.90
9915;DHT22;4996;48.746;9.174;2023-09-19T02:35:22;17.80;99.90
9915;DHT22;4996;48.746;9.174;2023-09-19T02:37:48;17.80;99.90
9915;DHT22;4996;48.746;9.174;2023-09-19T02:40:14;17.90;99.90
9915;DHT22;4996;48.746;9.174;2023-09-19T02:42:54;17.90;99.90
9915;DHT22;4996;48.746;9.174;2023-09-19T02:45:20;17.80;99.90
9915;DHT22;4996;48.746;9.174;2023-09-19T02:47:47;17.90;99.90
9915;DHT22;4996;48.746;9.174;2023-09-19T02:50:13;17.80;99.90
9915;DHT22;4996;48.746;9.174;2023-09-19T02:52:44;17.90;99.90
9915;DHT22;4996;48.746;9.174;2023-09-19T02:55:12;17.90;99.90
9915;DHT22;4996;48.746;9.174;2023-09-19T02:57:39;17.90;99.90
9915;DHT22;4996;48.746;9.174;2023-09-19T03:00:09;17.80;99.90
9915;DHT22;4996;48.746;9.174;2023-09-19T03:02:38;17.80;99.90
9915;DHT22;4996;48.746;9.174;2023-09-19T03:05:06;17.80;99.90
9915;DHT22;4996;48.746;9.174;2023-09-19T03:07:32;17.90;99.90
9915;DHT22;4996;48.746;9.174;2023-09-19T03:09:57;17.90;99.90
9915;DHT22;4996;48.746;9.174;2023-09-19T03:12:23;17.90;99.90
9915;DHT22;4996;48.746;9.174;2023-09-19T03:14:48;17.90;99.90
9915;DHT22;4996;48.746;9.174;2023-09-19T03:17:15;18.00;99.90
9915;DHT22;4996;48.746;9.174;2023-09-19T03:19:41;17.90;99.90
9915;DHT22;4996;48.746;9.174;2023-09-19T03:22:06;18.00;99.90
9915;DHT22;4996;48.746;9.174;2023-09-19T03:24:33;18.00;99.90
9915;DHT22;4996;48.746;9.174;2023-09-19T03:26:58;18.00;99.90
9915;DHT22;4996;48.746;9.174;2023-09-19T03:29:24;18.00;99.90
9915;DHT22;4996;48.746;9.174;2023-09-19T03:31:50;18.10;99.90
9915;DHT22;4996;48.746;9.174;2023-09-19T03:34:16;18.10;99.90
9915;DHT22;4996;48.746;9.174;2023-09-19T03:36:42;18.10;99.90
9915;DHT22;4996;48.746;9.174;2023-09-19T03:39:08;18.10;99.90
9915;DHT22;4996;48.746;9.174;2023-09-19T03:41:33;18.10;99.90
9915;DHT22;4996;48.746;9.174;2023-09-19T03:44:01;18.00;99.90
9915;DHT22;4996;48.746;9.174;2023-09-19T03:46:28;18.00;99.90
9915;DHT22;4996;48.746;9.174;2023-09-19T03:48:53;17.90;99.90
9915;DHT22;4996;48.746;9.174;2023-09-19T03:51:20;17.90;99.90
9915;DHT22;4996;48.746;9.174;2023-09-19T03:53:45;17.90;99.90
9915;DHT22;4996;48.746;9.174;2023-09-19T03:56:37;18.00;99.90
9915;DHT22;4996;48.746;9.174;2023-09-19T03:59:06;18.00;99.90
9915;DHT22;4996;48.746;9.174;2023-09-19T04:01:33;17.90;99.90
9915;DHT22;4996;48.746;9.174;2023-09-19T04:03:59;17.80;99.90
9915;DHT22;4996;48.746;9.174;2023-09-19T04:06:36;17.80;99.90
9915;DHT22;4996;48.746;9.174;2023-09-19T04:09:03;17.80;99.90
9915;DHT22;4996;48.746;9.174;2023-09-19T04:11:29;17.80;99.90
9915;DHT22;4996;48.746;9.174;2023-09-19T04:13:55;17.80;99.90
9915;DHT22;4996;48.746;9.174;2023-09-19T04:16:21;17.60;99.90
9915;DHT22;4996;48.746;9.174;2023-09-19T04:18:46;17.60;99.90
9915;DHT22;4996;48.746;9.174;2023-09-19T04:21:12;17.60;99.90
9915;DHT22;4996;48.746;9.174;2023-09-19T04:23:37;17.60;99.90
9915;DHT22;4996;48.746;9.174;2023-09-19T04:26:03;17.60;99.90
9915;DHT22;4996;48.746;9.174;2023-09-19T04:28:31;17.60;99.90
9915;DHT22;4996;48.746;9.174;2023-09-19T04:30:59;17.50;99.90
9915;DHT22;4996;48.746;9.174;2023-09-19T04:33:25;17.50;99.90
9915;DHT22;4996;48.746;9.174;2023-09-19T04:35:52;17.50;99.90
9915;DHT22;4996;48.746;9.174;2023-09-19T04:38:18;17.40;99.90
9915;DHT22;4996;48.746;9.174;2023-09-19T04:40:45;17.60;99.90
9915;DHT22;4996;48.746;9.174;2023-09-19T04:43:10;17.60;99.90
9915;DHT22;4996;48.746;9.174;2023-09-19T04:45:38;17.60;99.90
9915;DHT22;4996;48.746;9.174;2023-09-19T04:48:04;17.40;99.90
9915;DHT22;4996;48.746;9.174;2023-09-19T04:50:32;17.40;99.90
9915;DHT22;4996;48.746;9.174;2023-09-19T04:52:57;17.40;99.90
9915;DHT22;4996;48.746;9.174;2023-09-19T04:55:23;17.50;99.90
9915;DHT22;4996;48.746;9.174;2023-09-19T04:57:52;17.50;99.90
9915;DHT22;4996;48.746;9.174;2023-09-19T05:00:19;17.60;99.90
9915;DHT22;4996;48.746;9.174;2023-09-19T05:02:50;17.70;99.90
9915;DHT22;4996;48.746;9.174;2023-09-19T05:05:16;17.80;99.90
9915;DHT22;4996;48.746;9.174;2023-09-19T05:07:45;17.90;99.90
9915;DHT22;4996;48.746;9.174;2023-09-19T05:10:10;17.90;99.90
9915;DHT22;4996;48.746;9.174;2023-09-19T05:12:37;17.90;99.90
9915;DHT22;4996;48.746;9.174;2023-09-19T05:15:03;17.90;99.90
9915;DHT22;4996;48.746;9.174;2023-09-19T05:17:30;17.90;99.90
9915;DHT22;4996;48.746;9.174;2023-09-19T05:19:57;17.90;99.90
9915;DHT22;4996;48.746;9.174;2023-09-19T05:22:23;17.80;99.90
9915;DHT22;4996;48.746;9.174;2023-09-19T05:24:50;17.70;99.90
9915;DHT22;4996;48.746;9.174;2023-09-19T05:27:19;17.60;99.90
9915;DHT22;4996;48.746;9.174;2023-09-19T05:29:46;17.60;99.90
9915;DHT22;4996;48.746;9.174;2023-09-19T05:32:12;17.50;99.90
9915;DHT22;4996;48.746;9.174;2023-09-19T05:34:38;17.40;99.90
9915;DHT22;4996;48.746;9.174;2023-09-19T05:37:04;17.30;99.90
9915;DHT22;4996;48.746;9.174;2023-09-19T05:39:33;17.30;99.90
9915;DHT22;4996;48.746;9.174;2023-09-19T05:41:58;17.40;99.90
9915;DHT22;4996;48.746;9.174;2023-09-19T05:44:25;17.40;99.90
9915;DHT22;4996;48.746;9.174;2023-09-19T05:46:51;17.50;99.90
9915;DHT22;4996;48.746;9.174;2023-09-19T05:49:17;17.60;99.90
9915;DHT22;4996;48.746;9.174;2023-09-19T05:51:43;17.60;99.90
9915;DHT22;4996;48.746;9.174;2023-09-19T05:54:08;17.80;99.90
9915;DHT22;4996;48.746;9.174;2023-09-19T05:56:34;17.80;99.90
9915;DHT22;4996;48.746;9.174;2023-09-19T05:59:00;17.80;99.90
9915;DHT22;4996;48.746;9.174;2023-09-19T06:01:25;17.70;99.90
9915;DHT22;4996;48.746;9.174;2023-09-19T06:03:51;17.40;99.90
9915;DHT22;4996;48.746;9.174;2023-09-19T06:06:18;17.10;99.90
9915;DHT22;4996;48.746;9.174;2023-09-19T06:08:44;16.90;99.90
9915;DHT22;4996;48.746;9.174;2023-09-19T06:11:10;16.90;99.90
9915;DHT22;4996;48.746;9.174;2023-09-19T06:13:36;16.90;99.90
9915;DHT22;4996;48.746;9.174;2023-09-19T06:16:04;16.90;99.90
9915;DHT22;4996;48.746;9.174;2023-09-19T06:18:31;16.80;99.90
9915;DHT22;4996;48.746;9.174;2023-09-19T06:20:59;16.80;99.90
9915;DHT22;4996;48.746;9.174;2023-09-19T06:23:25;16.90;99.90
9915;DHT22;4996;48.746;9.174;2023-09-19T06:25:52;16.80;99.90
9915;DHT22;4996;48.746;9.174;2023-09-19T06:28:18;16.90;99.90
9915;DHT22;4996;48.746;9.174;2023-09-19T06:30:49;16.70;99.90
9915;DHT22;4996;48.746;9.174;2023-09-19T06:33:14;16.90;99.90
9915;DHT22;4996;48.746;9.174;2023-09-19T06:35:41;17.00;99.90
9915;DHT22;4996;48.746;9.174;2023-09-19T06:38:07;17.10;99.90
9915;DHT22;4996;48.746;9.174;2023-09-19T06:40:34;17.10;99.90
9915;DHT22;4996;48.746;9.174;2023-09-19T06:42:59;17.00;99.90
9915;DHT22;4996;48.746;9.174;2023-09-19T06:45:27;17.00;99.90
9915;DHT22;4996;48.746;9.174;2023-09-19T06:47:53;17.10;99.90
9915;DHT22;4996;48.746;9.174;2023-09-19T06:50:23;17.20;99.90
9915;DHT22;4996;48.746;9.174;2023-09-19T06:52:53;17.30;99.90
9915;DHT22;4996;48.746;9.174;2023-09-19T06:55:21;17.20;99.90
9915;DHT22;4996;48.746;9.174;2023-09-19T06:57:49;17.20;99.90
9915;DHT22;4996;48.746;9.174;2023-09-19T07:00:15;17.20;99.90
9915;DHT22;4996;48.746;9.174;2023-09-19T07:02:42;17.30;99.90
9915;DHT22;4996;48.746;9.174;2023-09-19T07:05:08;17.40;99.90
9915;DHT22;4996;48.746;9.174;2023-09-19T07:07:34;17.30;99.90
9915;DHT22;4996;48.746;9.174;2023-09-19T07:10:01;17.50;99.90
9915;DHT22;4996;48.746;9.174;2023-09-19T07:12:27;17.70;99.90
9915;DHT22;4996;48.746;9.174;2023-09-19T07:14:52;17.70;99.90
9915;DHT22;4996;48.746;9.174;2023-09-19T07:17:18;17.80;99.90
9915;DHT22;4996;48.746;9.174;2023-09-19T07:19:44;17.70;99.90
9915;DHT22;4996;48.746;9.174;2023-09-19T07:22:10;17.90;99.90
9915;DHT22;4996;48.746;9.174;2023-09-19T07:24:36;17.80;99.90
9915;DHT22;4996;48.746;9.174;2023-09-19T07:27:02;18.00;99.90
9915;DHT22;4996;48.746;9.174;2023-09-19T07:29:28;18.10;99.90
9915;DHT22;4996;48.746;9.174;2023-09-19T07:31:53;18.20;99.90
9915;DHT22;4996;48.746;9.174;2023-09-19T07:34:19;18.10;99.90
9915;DHT22;4996;48.746;9.174;2023-09-19T07:36:47;18.20;99.90
9915;DHT22;4996;48.746;9.174;2023-09-19T07:39:13;18.20;99.90
9915;DHT22;4996;48.746;9.174;2023-09-19T07:41:38;18.10;99.90
9915;DHT22;4996;48.746;9.174;2023-09-19T07:44:04;18.30;99.90
9915;DHT22;4996;48.746;9.174;2023-09-19T07:46:30;18.50;99.90
9915;DHT22;4996;48.746;9.174;2023-09-19T07:48:57;18.70;99.90
9915;DHT22;4996;48.746;9.174;2023-09-19T07:51:23;18.60;99.90
9915;DHT22;4996;48.746;9.174;2023-09-19T07:53:48;18.60;99.90
9915;DHT22;4996;48.746;9.174;2023-09-19T07:56:14;18.70;99.90
9915;DHT22;4996;48.746;9.174;2023-09-19T07:58:40;18.70;99.90
9915;DHT22;4996;48.746;9.174;2023-09-19T08:01:10;18.90;99.90
9915;DHT22;4996;48.746;9.174;2023-09-19T08:03:39;18.90;99.90
9915;DHT22;4996;48.746;9.174;2023-09-19T08:06:06;19.00;99.90
9915;DHT22;4996;48.746;9.174;2023-09-19T08:08:33;19.00;99.90
9915;DHT22;4996;48.746;9.174;2023-09-19T08:11:05;19.10;99.90
9915;DHT22;4996;48.746;9.174;2023-09-19T08:13:37;19.10;99.90
9915;DHT22;4996;48.746;9.174;2023-09-19T08:16:04;19.40;99.90
9915;DHT22;4996;48.746;9.174;2023-09-19T08:18:30;19.50;99.90
9915;DHT22;4996;48.746;9.174;2023-09-19T08:20:55;19.70;99.90
9915;DHT22;4996;48.746;9.174;2023-09-19T08:23:24;19.80;99.90
9915;DHT22;4996;48.746;9.174;2023-09-19T08:25:49;19.90;99.90
9915;DHT22;4996;48.746;9.174;2023-09-19T08:28:15;19.90;99.90
9915;DHT22;4996;48.746;9.174;2023-09-19T08:30:45;20.20;99.90
9915;DHT22;4996;48.746;9.174;2023-09-19T08:33:11;20.20;99.90
9915;DHT22;4996;48.746;9.174;2023-09-19T08:35:37;20.20;99.90
9915;DHT22;4996;48.746;9.174;2023-09-19T08:38:05;20.20;99.90
9915;DHT22;4996;48.746;9.174;2023-09-19T08:40:32;20.10;99.90
9915;DHT22;4996;48.746;9.174;2023-09-19T08:42:59;19.80;99.90
9915;DHT22;4996;48.746;9.174;2023-09-19T08:45:26;19.90;99.90
9915;DHT22;4996;48.746;9.174;2023-09-19T08:48:20;19.90;99.90
9915;DHT22;4996;48.746;9.174;2023-09-19T08:53:41;19.60;99.90
9915;DHT22;4996;48.746;9.174;2023-09-19T08:56:10;19.40;99.90
9915;DHT22;4996;48.746;9.174;2023-09-19T08:58:44;19.50;99.90
9915;DHT22;4996;48.746;9.174;2023-09-19T09:01:16;19.40;99.90
9915;DHT22;4996;48.746;9.174;2023-09-19T09:03:48;19.30;99.90
9915;DHT22;4996;48.746;9.174;2023-09-19T09:06:14;19.50;99.90
9915;DHT22;4996;48.746;9.174;2023-09-19T09:08:42;19.60;99.90
9915;DHT22;4996;48.746;9.174;2023-09-19T09:11:08;19.90;99.90
9915;DHT22;4996;48.746;9.174;2023-09-19T09:13:36;20.10;99.90
9915;DHT22;4996;48.746;9.174;2023-09-19T09:16:02;20.20;99.90
9915;DHT22;4996;48.746;9.174;2023-09-19T09:18:28;20.30;99.90
9915;DHT22;4996;48.746;9.174;2023-09-19T09:20:57;20.20;99.90
9915;DHT22;4996;48.746;9.174;2023-09-19T09:23:23;20.30;99.90
9915;DHT22;4996;48.746;9.174;2023-09-19T09:25:55;20.20;99.90
9915;DHT22;4996;48.746;9.174;2023-09-19T09:28:24;20.30;99.90
9915;DHT22;4996;48.746;9.174;2023-09-19T09:30:50;20.30;99.90
9915;DHT22;4996;48.746;9.174;2023-09-19T09:33:16;20.40;99.90
9915;DHT22;4996;48.746;9.174;2023-09-19T09:35:57;20.30;99.90
9915;DHT22;4996;48.746;9.174;2023-09-19T09:38:25;20.30;99.90
9915;DHT22;4996;48.746;9.174;2023-09-19T09:40:54;20.30;99.90
9915;DHT22;4996;48.746;9.174;2023-09-19T09:43:40;20.20;99.90
9915;DHT22;4996;48.746;9.174;2023-09-19T09:46:17;20.10;99.90
9915;DHT22;4996;48.746;9.174;2023-09-19T09:48:46;20.10;99.90
9915;DHT22;4996;48.746;9.174;2023-09-19T09:51:30;20.20;99.90
9915;DHT22;4996;48.746;9.174;2023-09-19T09:54:32;20.20;99.90
9915;DHT22;4996;48.746;9.174;2023-09-19T09:57:08;20.20;99.90
9915;DHT22;4996;48.746;9.174;2023-09-19T09:59:58;20.20;99.90
9915;DHT22;4996;48.746;9.174;2023-09-19T10:02:37;20.40;99.90
9915;DHT22;4996;48.746;9.174;2023-09-19T10:05:16;20.40;99.90
9915;DHT22;4996;48.746;9.174;2023-09-19T10:07:42;20.50;99.90
9915;DHT22;4996;48.746;9.174;2023-09-19T10:10:15;20.40;99.90
9915;DHT22;4996;48.746;9.174;2023-09-19T10:12:47;20.40;99.90
9915;DHT22;4996;48.746;9.174;2023-09-19T10:15:18;20.50;99.90
9915;DHT22;4996;48.746;9.174;2023-09-19T10:17:48;20.50;99.90
9915;DHT22;4996;48.746;9.174;2023-09-19T10:20:17;20.70;99.90
9915;DHT22;4996;48.746;9.174;2023-09-19T10:23:06;21.00;99.90
9915;DHT22;4996;48.746;9.174;2023-09-19T10:25:39;21.10;99.90
9915;DHT22;4996;48.746;9.174;2023-09-19T10:28:06;21.00;99.90
9915;DHT22;4996;48.746;9.174;2023-09-19T10:30:37;21.40;99.90
9915;DHT22;4996;48.746;9.174;2023-09-19T10:33:14;21.80;99.90
9915;DHT22;4996;48.746;9.174;2023-09-19T10:35:43;22.30;99.90
9915;DHT22;4996;48.746;9.174;2023-09-19T10:38:13;22.40;99.90
9915;DHT22;4996;48.746;9.174;2023-09-19T10:40:40;22.30;99.90
9915;DHT22;4996;48.746;9.174;2023-09-19T10:43:16;22.20;99.90
9915;DHT22;4996;48.746;9.174;2023-09-19T10:45:45;21.90;99.90
9915;DHT22;4996;48.746;9.174;2023-09-19T10:48:15;22.10;99.90
9915;DHT22;4996;48.746;9.174;2023-09-19T10:53:11;22.80;99.90
9915;DHT22;4996;48.746;9.174;2023-09-19T10:55:38;23.10;99.90
9915;DHT22;4996;48.746;9.174;2023-09-19T10:58:05;23.20;99.90
9915;DHT22;4996;48.746;9.174;2023-09-19T11:00:54;23.40;99.90
9915;DHT22;4996;48.746;9.174;2023-09-19T11:03:21;23.40;99.90
9915;DHT22;4996;48.746;9.174;2023-09-19T11:08:27;23.80;99.90
9915;DHT22;4996;48.746;9.174;2023-09-19T11:10:52;24.00;99.90
9915;DHT22;4996;48.746;9.174;2023-09-19T11:13:26;24.30;99.90
9915;DHT22;4996;48.746;9.174;2023-09-19T11:24:28;25.40;99.30
9915;DHT22;4996;48.746;9.174;2023-09-19T11:27:15;25.60;99.30
9915;DHT22;4996;48.746;9.174;2023-09-19T11:29:42;26.30;97.70
9915;DHT22;4996;48.746;9.174;2023-09-19T11:32:08;26.30;96.90
9915;DHT22;4996;48.746;9.174;2023-09-19T11:34:39;26.40;96.60
9915;DHT22;4996;48.746;9.174;2023-09-19T11:39:39;25.50;96.80
9915;DHT22;4996;48.746;9.174;2023-09-19T11:48:15;24.70;96.80
9915;DHT22;4996;48.746;9.174;2023-09-19T11:50:45;24.60;96.60
9915;DHT22;4996;48.746;9.174;2023-09-19T11:53:12;25.20;96.10
9915;DHT22;4996;48.746;9.174;2023-09-19T11:55:41;25.50;95.20
9915;DHT22;4996;48.746;9.174;2023-09-19T11:58:09;25.50;94.80
9915;DHT22;4996;48.746;9.174;2023-09-19T12:00:35;25.70;95.10
9915;DHT22;4996;48.746;9.174;2023-09-19T12:03:08;26.40;94.10
9915;DHT22;4996;48.746;9.174;2023-09-19T12:05:37;26.00;93.80
9915;DHT22;4996;48.746;9.174;2023-09-19T12:08:09;26.10;93.60
9915;DHT22;4996;48.746;9.174;2023-09-19T12:10:50;25.00;94.10
9915;DHT22;4996;48.746;9.174;2023-09-19T12:13:17;24.40;94.90
9915;DHT22;4996;48.746;9.174;2023-09-19T12:15:44;24.20;95.80
9915;DHT22;4996;48.746;9.174;2023-09-19T12:18:25;24.40;95.20
9915;DHT22;4996;48.746;9.174;2023-09-19T12:20:51;25.20;95.00
9915;DHT22;4996;48.746;9.174;2023-09-19T12:23:17;25.10;94.40
9915;DHT22;4996;48.746;9.174;2023-09-19T12:25:43;24.90;94.70
9915;DHT22;4996;48.746;9.174;2023-09-19T12:28:17;24.40;95.40
9915;DHT22;4996;48.746;9.174;2023-09-19T12:30:43;24.70;95.60
9915;DHT22;4996;48.746;9.174;2023-09-19T12:33:19;25.10;94.40
9915;DHT22;4996;48.746;9.174;2023-09-19T12:35:45;25.60;94.20
9915;DHT22;4996;48.746;9.174;2023-09-19T12:38:11;26.10;94.00
9915;DHT22;4996;48.746;9.174;2023-09-19T12:40:49;26.40;93.00
9915;DHT22;4996;48.746;9.174;2023-09-19T12:43:17;26.60;93.70
9915;DHT22;4996;48.746;9.174;2023-09-19T12:45:43;25.80;93.60
9915;DHT22;4996;48.746;9.174;2023-09-19T12:48:23;25.30;93.10
9915;DHT22;4996;48.746;9.174;2023-09-19T12:51:06;25.10;93.40
9915;DHT22;4996;48.746;9.174;2023-09-19T12:53:38;25.20;94.30
9915;DHT22;4996;48.746;9.174;2023-09-19T12:56:17;25.00;94.00
9915;DHT22;4996;48.746;9.174;2023-09-19T12:58:58;25.20;93.80
9915;DHT22;4996;48.746;9.174;2023-09-19T13:01:28;25.20;93.90
9915;DHT22;4996;48.746;9.174;2023-09-19T13:04:20;25.10;93.80
9915;DHT22;4996;48.746;9.174;2023-09-19T13:06:52;24.80;93.90
9915;DHT22;4996;48.746;9.174;2023-09-19T13:09:19;24.70;94.80
9915;DHT22;4996;48.746;9.174;2023-09-19T13:11:46;24.50;95.70
9915;DHT22;4996;48.746;9.174;2023-09-19T13:17:07;24.60;94.60
9915;DHT22;4996;48.746;9.174;2023-09-19T13:19:45;24.30;94.80
9915;DHT22;4996;48.746;9.174;2023-09-19T13:22:36;24.30;94.40
9915;DHT22;4996;48.746;9.174;2023-09-19T13:25:13;24.10;95.20
9915;DHT22;4996;48.746;9.174;2023-09-19T13:27:42;24.00;94.90
9915;DHT22;4996;48.746;9.174;2023-09-19T13:30:08;23.50;95.10
9915;DHT22;4996;48.746;9.174;2023-09-19T13:32:34;23.60;95.90
9915;DHT22;4996;48.746;9.174;2023-09-19T13:34:59;23.60;95.60
9915;DHT22;4996;48.746;9.174;2023-09-19T13:37:25;23.60;95.30
9915;DHT22;4996;48.746;9.174;2023-09-19T13:39:52;23.80;95.80
9915;DHT22;4996;48.746;9.174;2023-09-19T13:42:17;23.80;95.50
9915;DHT22;4996;48.746;9.174;2023-09-19T13:44:44;23.60;95.70
9915;DHT22;4996;48.746;9.174;2023-09-19T13:47:09;23.50;95.70
9915;DHT22;4996;48.746;9.174;2023-09-19T13:49:36;23.70;95.70
9915;DHT22;4996;48.746;9.174;2023-09-19T13:52:02;23.40;95.90
9915;DHT22;4996;48.746;9.174;2023-09-19T13:54:31;23.40;95.10
9915;DHT22;4996;48.746;9.174;2023-09-19T13:56:57;23.60;95.40
9915;DHT22;4996;48.746;9.174;2023-09-19T13:59:23;23.60;95.00
9915;DHT22;4996;48.746;9.174;2023-09-19T14:01:51;23.50;94.70
9915;DHT22;4996;48.746;9.174;2023-09-19T14:04:19;23.70;95.00
9915;DHT22;4996;48.746;9.174;2023-09-19T14:06:44;23.70;95.00
9915;DHT22;4996;48.746;9.174;2023-09-19T14:09:11;23.80;94.80
9915;DHT22;4996;48.746;9.174;2023-09-19T14:11:38;23.70;94.90
9915;DHT22;4996;48.746;9.174;2023-09-19T14:14:04;23.50;94.20
9915;DHT22;4996;48.746;9.174;2023-09-19T14:16:30;23.60;94.50
9915;DHT22;4996;48.746;9.174;2023-09-19T14:18:56;23.70;94.20
9915;DHT22;4996;48.746;9.174;2023-09-19T14:21:23;23.40;94.80
9915;DHT22;4996;48.746;9.174;2023-09-19T14:23:48;23.30;94.50
9915;DHT22;4996;48.746;9.174;2023-09-19T14:26:14;23.20;95.00
9915;DHT22;4996;48.746;9.174;2023-09-19T14:28:41;23.40;95.00
9915;DHT22;4996;48.746;9.174;2023-09-19T14:31:11;23.40;95.20
9915;DHT22;4996;48.746;9.174;2023-09-19T14:33:37;23.40;95.20
9915;DHT22;4996;48.746;9.174;2023-09-19T14:36:08;23.60;95.50
9915;DHT22;4996;48.746;9.174;2023-09-19T14:38:34;23.70;95.30
9915;DHT22;4996;48.746;9.174;2023-09-19T14:41:05;23.80;95.30
9915;DHT22;4996;48.746;9.174;2023-09-19T14:43:31;23.70;94.80
9915;DHT22;4996;48.746;9.174;2023-09-19T14:46:07;23.60;94.90
9915;DHT22;4996;48.746;9.174;2023-09-19T14:48:36;23.50;94.30
9915;DHT22;4996;48.746;9.174;2023-09-19T14:51:06;23.70;94.70
9915;DHT22;4996;48.746;9.174;2023-09-19T14:53:34;23.70;94.30
9915;DHT22;4996;48.746;9.174;2023-09-19T14:56:01;23.60;95.20
9915;DHT22;4996;48.746;9.174;2023-09-19T14:58:29;23.50;92.60
9915;DHT22;4996;48.746;9.174;2023-09-19T15:01:03;23.40;92.90
9915;DHT22;4996;48.746;9.174;2023-09-19T15:03:28;23.30;92.40
9915;DHT22;4996;48.746;9.174;2023-09-19T15:06:02;23.50;93.10
9915;DHT22;4996;48.746;9.174;2023-09-19T15:08:30;23.50;93.20
9915;DHT22;4996;48.746;9.174;2023-09-19T15:10:56;23.40;92.90
9915;DHT22;4996;48.746;9.174;2023-09-19T15:13:24;23.30;93.20
9915;DHT22;4996;48.746;9.174;2023-09-19T15:15:58;23.30;93.00
9915;DHT22;4996;48.746;9.174;2023-09-19T15:18:24;23.10;93.20
9915;DHT22;4996;48.746;9.174;2023-09-19T15:20:50;23.30;93.30
9915;DHT22;4996;48.746;9.174;2023-09-19T15:23:16;23.10;93.30
9915;DHT22;4996;48.746;9.174;2023-09-19T15:25:48;23.00;93.40
9915;DHT22;4996;48.746;9.174;2023-09-19T15:28:14;23.30;93.60
9915;DHT22;4996;48.746;9.174;2023-09-19T15:30:39;23.30;93.30
9915;DHT22;4996;48.746;9.174;2023-09-19T15:33:05;23.40;94.20
9915;DHT22;4996;48.746;9.174;2023-09-19T15:35:31;23.30;93.60
9915;DHT22;4996;48.746;9.174;2023-09-19T15:37:57;23.20;93.50
9915;DHT22;4996;48.746;9.174;2023-09-19T15:40:26;23.30;93.70
9915;DHT22;4996;48.746;9.174;2023-09-19T15:42:54;23.20;93.40
9915;DHT22;4996;48.746;9.174;2023-09-19T15:45:19;23.10;93.20
9915;DHT22;4996;48.746;9.174;2023-09-19T15:47:45;23.00;93.50
9915;DHT22;4996;48.746;9.174;2023-09-19T15:50:11;23.00;93.50
9915;DHT22;4996;48.746;9.174;2023-09-19T15:52:39;23.00;93.50
9915;DHT22;4996;48.746;9.174;2023-09-19T15:55:05;23.00;93.70
9915;DHT22;4996;48.746;9.174;2023-09-19T15:57:32;22.90;93.50
9915;DHT22;4996;48.746;9.174;2023-09-19T15:59:59;22.90;93.50
9915;DHT22;4996;48.746;9.174;2023-09-19T16:02:25;23.00;93.30
9915;DHT22;4996;48.746;9.174;2023-09-19T16:04:54;22.80;93.10
9915;DHT22;4996;48.746;9.174;2023-09-19T16:07:19;22.70;93.40
9915;DHT22;4996;48.746;9.174;2023-09-19T16:09:45;22.70;93.80
9915;DHT22;4996;48.746;9.174;2023-09-19T16:12:10;22.70;94.10
9915;DHT22;4996;48.746;9.174;2023-09-19T16:14:36;22.80;93.80
9915;DHT22;4996;48.746;9.174;2023-09-19T16:17:03;22.90;94.20
9915;DHT22;4996;48.746;9.174;2023-09-19T16:19:28;22.80;94.30
9915;DHT22;4996;48.746;9.174;2023-09-19T16:21:54;22.70;95.00
9915;DHT22;4996;48.746;9.174;2023-09-19T16:24:22;22.60;94.80
9915;DHT22;4996;48.746;9.174;2023-09-19T16:26:47;22.60;95.00
9915;DHT22;4996;48.746;9.174;2023-09-19T16:29:14;22.60;95.00
9915;DHT22;4996;48.746;9.174;2023-09-19T16:31:40;22.70;95.10
9915;DHT22;4996;48.746;9.174;2023-09-19T16:34:06;22.90;95.50
9915;DHT22;4996;48.746;9.174;2023-09-19T16:36:32;22.70;95.20
9915;DHT22;4996;48.746;9.174;2023-09-19T16:38:58;22.80;95.30
9915;DHT22;4996;48.746;9.174;2023-09-19T16:41:24;22.80;95.40
9915;DHT22;4996;48.746;9.174;2023-09-19T16:43:50;22.70;95.40
9915;DHT22;4996;48.746;9.174;2023-09-19T16:46:16;22.70;95.60
9915;DHT22;4996;48.746;9.174;2023-09-19T16:48:43;22.70;95.40
9915;DHT22;4996;48.746;9.174;2023-09-19T16:51:12;22.60;95.80
9915;DHT22;4996;48.746;9.174;2023-09-19T16:53:39;22.40;95.60